<?xml version="1.0" encoding="UTF-8" standalone="no" ?>
<gpx xmlns="http://www.topografix.com/GPX/1/1" xmlns:xsi="http://www.w3.org/2001/XMLSchema-instance" xsi:schemaLocation="http://www.topografix.com/GPX/1/1 http://www.topografix.com/GPX/1/1/gpx.xsd" version="1.1" creator="VisuGPX - https://www.visugpx.com">
  <metadata>
    <name>Parcours VTT Aglo 2021</name>
  </metadata>
  <trk>
    <name><![CDATA[Rouge Cornillon St Gely]]></name>
    <extensions>
      <line xmlns="http://www.topografix.com/GPX/gpx_style/0/2">
        <color>ff0000</color>
        <width>4</width>
      </line>
    </extensions>
    <trkseg>
      <trkpt lat="44.21827" lon="4.48567">
        <ele>88</ele>
        <time>2021-07-04T13:01:03Z</time>
      </trkpt>
      <trkpt lat="44.21827" lon="4.48567">
        <ele>88</ele>
        <time>2021-07-04T13:01:03Z</time>
      </trkpt>
      <trkpt lat="44.21832" lon="4.48575">
        <ele>88</ele>
        <time>2021-07-04T13:01:05Z</time>
      </trkpt>
      <trkpt lat="44.21851" lon="4.48557">
        <ele>86</ele>
        <time>2021-07-04T13:01:10Z</time>
      </trkpt>
      <trkpt lat="44.21845" lon="4.48548">
        <ele>86</ele>
        <time>2021-07-04T13:01:12Z</time>
      </trkpt>
      <trkpt lat="44.21844" lon="4.48547">
        <ele>86</ele>
        <time>2021-07-04T13:01:12Z</time>
      </trkpt>
      <trkpt lat="44.21838" lon="4.48535">
        <ele>85</ele>
        <time>2021-07-04T13:01:15Z</time>
      </trkpt>
      <trkpt lat="44.2183" lon="4.4852">
        <ele>85</ele>
        <time>2021-07-04T13:01:18Z</time>
      </trkpt>
      <trkpt lat="44.21801" lon="4.48544">
        <ele>87</ele>
        <time>2021-07-04T13:01:26Z</time>
      </trkpt>
      <trkpt lat="44.21798" lon="4.48545">
        <ele>87</ele>
        <time>2021-07-04T13:01:27Z</time>
      </trkpt>
      <trkpt lat="44.21705" lon="4.48452">
        <ele>85</ele>
        <time>2021-07-04T13:01:53Z</time>
      </trkpt>
      <trkpt lat="44.21694" lon="4.4844">
        <ele>84</ele>
        <time>2021-07-04T13:01:57Z</time>
      </trkpt>
      <trkpt lat="44.21583" lon="4.48329">
        <ele>76</ele>
        <time>2021-07-04T13:02:29Z</time>
      </trkpt>
      <trkpt lat="44.21546" lon="4.48296">
        <ele>76</ele>
        <time>2021-07-04T13:02:39Z</time>
      </trkpt>
      <trkpt lat="44.21477" lon="4.4825">
        <ele>77</ele>
        <time>2021-07-04T13:02:57Z</time>
      </trkpt>
      <trkpt lat="44.2144" lon="4.48231">
        <ele>76</ele>
        <time>2021-07-04T13:03:06Z</time>
      </trkpt>
      <trkpt lat="44.21388" lon="4.48212">
        <ele>77</ele>
        <time>2021-07-04T13:03:18Z</time>
      </trkpt>
      <trkpt lat="44.21374" lon="4.48206">
        <ele>77</ele>
        <time>2021-07-04T13:03:22Z</time>
      </trkpt>
      <trkpt lat="44.21261" lon="4.48163">
        <ele>79</ele>
        <time>2021-07-04T13:03:49Z</time>
      </trkpt>
      <trkpt lat="44.21251" lon="4.48161">
        <ele>80</ele>
        <time>2021-07-04T13:03:52Z</time>
      </trkpt>
      <trkpt lat="44.21236" lon="4.48236">
        <ele>77</ele>
        <time>2021-07-04T13:04:05Z</time>
      </trkpt>
      <trkpt lat="44.21224" lon="4.48276">
        <ele>77</ele>
        <time>2021-07-04T13:04:12Z</time>
      </trkpt>
      <trkpt lat="44.21211" lon="4.48307">
        <ele>78</ele>
        <time>2021-07-04T13:04:18Z</time>
      </trkpt>
      <trkpt lat="44.21205" lon="4.48315">
        <ele>78</ele>
        <time>2021-07-04T13:04:20Z</time>
      </trkpt>
      <trkpt lat="44.21195" lon="4.48323">
        <ele>79</ele>
        <time>2021-07-04T13:04:22Z</time>
      </trkpt>
      <trkpt lat="44.21189" lon="4.48328">
        <ele>79</ele>
        <time>2021-07-04T13:04:24Z</time>
      </trkpt>
      <trkpt lat="44.21181" lon="4.48338">
        <ele>79</ele>
        <time>2021-07-04T13:04:27Z</time>
      </trkpt>
      <trkpt lat="44.21172" lon="4.4836">
        <ele>80</ele>
        <time>2021-07-04T13:04:31Z</time>
      </trkpt>
      <trkpt lat="44.21167" lon="4.48367">
        <ele>80</ele>
        <time>2021-07-04T13:04:33Z</time>
      </trkpt>
      <trkpt lat="44.2116" lon="4.4837">
        <ele>80</ele>
        <time>2021-07-04T13:04:34Z</time>
      </trkpt>
      <trkpt lat="44.21148" lon="4.48366">
        <ele>80</ele>
        <time>2021-07-04T13:04:37Z</time>
      </trkpt>
      <trkpt lat="44.21122" lon="4.48352">
        <ele>80</ele>
        <time>2021-07-04T13:04:44Z</time>
      </trkpt>
      <trkpt lat="44.21094" lon="4.48338">
        <ele>80</ele>
        <time>2021-07-04T13:04:51Z</time>
      </trkpt>
      <trkpt lat="44.21091" lon="4.48338">
        <ele>80</ele>
        <time>2021-07-04T13:04:51Z</time>
      </trkpt>
      <trkpt lat="44.21088" lon="4.48339">
        <ele>80</ele>
        <time>2021-07-04T13:04:52Z</time>
      </trkpt>
      <trkpt lat="44.21076" lon="4.48367">
        <ele>80</ele>
        <time>2021-07-04T13:04:57Z</time>
      </trkpt>
      <trkpt lat="44.2106" lon="4.4842">
        <ele>80</ele>
        <time>2021-07-04T13:05:07Z</time>
      </trkpt>
      <trkpt lat="44.21045" lon="4.48468">
        <ele>79</ele>
        <time>2021-07-04T13:05:16Z</time>
      </trkpt>
      <trkpt lat="44.21015" lon="4.48542">
        <ele>79</ele>
        <time>2021-07-04T13:05:30Z</time>
      </trkpt>
      <trkpt lat="44.21" lon="4.48576">
        <ele>79</ele>
        <time>2021-07-04T13:05:37Z</time>
      </trkpt>
      <trkpt lat="44.20986" lon="4.48612">
        <ele>80</ele>
        <time>2021-07-04T13:05:44Z</time>
      </trkpt>
      <trkpt lat="44.20971" lon="4.48648">
        <ele>81</ele>
        <time>2021-07-04T13:05:51Z</time>
      </trkpt>
      <trkpt lat="44.2097" lon="4.48654">
        <ele>82</ele>
        <time>2021-07-04T13:05:52Z</time>
      </trkpt>
      <trkpt lat="44.20943" lon="4.48745">
        <ele>80</ele>
        <time>2021-07-04T13:06:08Z</time>
      </trkpt>
      <trkpt lat="44.2093" lon="4.48789">
        <ele>80</ele>
        <time>2021-07-04T13:06:16Z</time>
      </trkpt>
      <trkpt lat="44.20909" lon="4.48888">
        <ele>82</ele>
        <time>2021-07-04T13:06:33Z</time>
      </trkpt>
      <trkpt lat="44.20908" lon="4.48891">
        <ele>82</ele>
        <time>2021-07-04T13:06:34Z</time>
      </trkpt>
      <trkpt lat="44.20896" lon="4.48977">
        <ele>82</ele>
        <time>2021-07-04T13:06:49Z</time>
      </trkpt>
      <trkpt lat="44.20885" lon="4.49038">
        <ele>83</ele>
        <time>2021-07-04T13:06:59Z</time>
      </trkpt>
      <trkpt lat="44.20848" lon="4.49027">
        <ele>83</ele>
        <time>2021-07-04T13:07:08Z</time>
      </trkpt>
      <trkpt lat="44.20833" lon="4.49023">
        <ele>83</ele>
        <time>2021-07-04T13:07:11Z</time>
      </trkpt>
      <trkpt lat="44.20816" lon="4.49015">
        <ele>84</ele>
        <time>2021-07-04T13:07:16Z</time>
      </trkpt>
      <trkpt lat="44.20785" lon="4.49002">
        <ele>86</ele>
        <time>2021-07-04T13:07:23Z</time>
      </trkpt>
      <trkpt lat="44.20759" lon="4.48993">
        <ele>88</ele>
        <time>2021-07-04T13:07:29Z</time>
      </trkpt>
      <trkpt lat="44.20733" lon="4.48982">
        <ele>92</ele>
        <time>2021-07-04T13:07:36Z</time>
      </trkpt>
      <trkpt lat="44.20699" lon="4.48981">
        <ele>98</ele>
        <time>2021-07-04T13:07:44Z</time>
      </trkpt>
      <trkpt lat="44.20688" lon="4.48976">
        <ele>100</ele>
        <time>2021-07-04T13:07:46Z</time>
      </trkpt>
      <trkpt lat="44.2069" lon="4.49011">
        <ele>98</ele>
        <time>2021-07-04T13:07:52Z</time>
      </trkpt>
      <trkpt lat="44.2069" lon="4.49046">
        <ele>98</ele>
        <time>2021-07-04T13:07:58Z</time>
      </trkpt>
      <trkpt lat="44.20701" lon="4.4917">
        <ele>96</ele>
        <time>2021-07-04T13:08:19Z</time>
      </trkpt>
      <trkpt lat="44.20702" lon="4.49176">
        <ele>95</ele>
        <time>2021-07-04T13:08:20Z</time>
      </trkpt>
      <trkpt lat="44.20716" lon="4.49223">
        <ele>94</ele>
        <time>2021-07-04T13:08:29Z</time>
      </trkpt>
      <trkpt lat="44.2073" lon="4.49268">
        <ele>93</ele>
        <time>2021-07-04T13:08:37Z</time>
      </trkpt>
      <trkpt lat="44.20756" lon="4.49324">
        <ele>91</ele>
        <time>2021-07-04T13:08:48Z</time>
      </trkpt>
      <trkpt lat="44.20764" lon="4.49342">
        <ele>90</ele>
        <time>2021-07-04T13:08:52Z</time>
      </trkpt>
      <trkpt lat="44.2077" lon="4.4936">
        <ele>90</ele>
        <time>2021-07-04T13:08:55Z</time>
      </trkpt>
      <trkpt lat="44.20776" lon="4.49379">
        <ele>90</ele>
        <time>2021-07-04T13:08:58Z</time>
      </trkpt>
      <trkpt lat="44.20779" lon="4.49395">
        <ele>89</ele>
        <time>2021-07-04T13:09:01Z</time>
      </trkpt>
      <trkpt lat="44.20784" lon="4.49408">
        <ele>89</ele>
        <time>2021-07-04T13:09:04Z</time>
      </trkpt>
      <trkpt lat="44.20791" lon="4.49451">
        <ele>87</ele>
        <time>2021-07-04T13:09:11Z</time>
      </trkpt>
      <trkpt lat="44.20801" lon="4.49509">
        <ele>85</ele>
        <time>2021-07-04T13:09:21Z</time>
      </trkpt>
      <trkpt lat="44.20804" lon="4.49526">
        <ele>85</ele>
        <time>2021-07-04T13:09:24Z</time>
      </trkpt>
      <trkpt lat="44.20808" lon="4.49541">
        <ele>84</ele>
        <time>2021-07-04T13:09:27Z</time>
      </trkpt>
      <trkpt lat="44.20821" lon="4.49582">
        <ele>83</ele>
        <time>2021-07-04T13:09:34Z</time>
      </trkpt>
      <trkpt lat="44.20835" lon="4.49637">
        <ele>82</ele>
        <time>2021-07-04T13:09:44Z</time>
      </trkpt>
      <trkpt lat="44.20838" lon="4.49647">
        <ele>82</ele>
        <time>2021-07-04T13:09:46Z</time>
      </trkpt>
      <trkpt lat="44.2084" lon="4.49687">
        <ele>81</ele>
        <time>2021-07-04T13:09:52Z</time>
      </trkpt>
      <trkpt lat="44.2084" lon="4.49689">
        <ele>81</ele>
        <time>2021-07-04T13:09:53Z</time>
      </trkpt>
      <trkpt lat="44.20844" lon="4.49731">
        <ele>79</ele>
        <time>2021-07-04T13:10:00Z</time>
      </trkpt>
      <trkpt lat="44.20847" lon="4.49761">
        <ele>78</ele>
        <time>2021-07-04T13:10:05Z</time>
      </trkpt>
      <trkpt lat="44.20849" lon="4.49778">
        <ele>77</ele>
        <time>2021-07-04T13:10:08Z</time>
      </trkpt>
      <trkpt lat="44.20853" lon="4.49795">
        <ele>77</ele>
        <time>2021-07-04T13:10:11Z</time>
      </trkpt>
      <trkpt lat="44.20858" lon="4.49806">
        <ele>77</ele>
        <time>2021-07-04T13:10:13Z</time>
      </trkpt>
      <trkpt lat="44.20877" lon="4.49858">
        <ele>76</ele>
        <time>2021-07-04T13:10:23Z</time>
      </trkpt>
      <trkpt lat="44.20893" lon="4.49896">
        <ele>76</ele>
        <time>2021-07-04T13:10:30Z</time>
      </trkpt>
      <trkpt lat="44.20908" lon="4.49934">
        <ele>75</ele>
        <time>2021-07-04T13:10:37Z</time>
      </trkpt>
      <trkpt lat="44.20903" lon="4.49937">
        <ele>75</ele>
        <time>2021-07-04T13:10:39Z</time>
      </trkpt>
      <trkpt lat="44.20893" lon="4.49937">
        <ele>75</ele>
        <time>2021-07-04T13:10:41Z</time>
      </trkpt>
      <trkpt lat="44.20831" lon="4.49928">
        <ele>75</ele>
        <time>2021-07-04T13:10:56Z</time>
      </trkpt>
      <trkpt lat="44.20824" lon="4.49927">
        <ele>75</ele>
        <time>2021-07-04T13:10:57Z</time>
      </trkpt>
      <trkpt lat="44.20797" lon="4.49923">
        <ele>76</ele>
        <time>2021-07-04T13:11:04Z</time>
      </trkpt>
      <trkpt lat="44.20768" lon="4.49919">
        <ele>77</ele>
        <time>2021-07-04T13:11:10Z</time>
      </trkpt>
      <trkpt lat="44.20738" lon="4.49916">
        <ele>79</ele>
        <time>2021-07-04T13:11:17Z</time>
      </trkpt>
      <trkpt lat="44.20701" lon="4.49912">
        <ele>83</ele>
        <time>2021-07-04T13:11:26Z</time>
      </trkpt>
      <trkpt lat="44.2068" lon="4.49908">
        <ele>86</ele>
        <time>2021-07-04T13:11:31Z</time>
      </trkpt>
      <trkpt lat="44.20659" lon="4.499">
        <ele>88</ele>
        <time>2021-07-04T13:11:36Z</time>
      </trkpt>
      <trkpt lat="44.20639" lon="4.49894">
        <ele>89</ele>
        <time>2021-07-04T13:11:41Z</time>
      </trkpt>
      <trkpt lat="44.20621" lon="4.49891">
        <ele>91</ele>
        <time>2021-07-04T13:11:45Z</time>
      </trkpt>
      <trkpt lat="44.20612" lon="4.49889">
        <ele>92</ele>
        <time>2021-07-04T13:11:47Z</time>
      </trkpt>
      <trkpt lat="44.20598" lon="4.49889">
        <ele>93</ele>
        <time>2021-07-04T13:11:50Z</time>
      </trkpt>
      <trkpt lat="44.2059" lon="4.49889">
        <ele>94</ele>
        <time>2021-07-04T13:11:52Z</time>
      </trkpt>
      <trkpt lat="44.20585" lon="4.49888">
        <ele>94</ele>
        <time>2021-07-04T13:11:54Z</time>
      </trkpt>
      <trkpt lat="44.20571" lon="4.49885">
        <ele>96</ele>
        <time>2021-07-04T13:11:57Z</time>
      </trkpt>
      <trkpt lat="44.20563" lon="4.49886">
        <ele>97</ele>
        <time>2021-07-04T13:11:59Z</time>
      </trkpt>
      <trkpt lat="44.20555" lon="4.4989">
        <ele>98</ele>
        <time>2021-07-04T13:12:01Z</time>
      </trkpt>
      <trkpt lat="44.20552" lon="4.49889">
        <ele>98</ele>
        <time>2021-07-04T13:12:01Z</time>
      </trkpt>
      <trkpt lat="44.20525" lon="4.49891">
        <ele>102</ele>
        <time>2021-07-04T13:12:08Z</time>
      </trkpt>
      <trkpt lat="44.20519" lon="4.49879">
        <ele>103</ele>
        <time>2021-07-04T13:12:10Z</time>
      </trkpt>
      <trkpt lat="44.20513" lon="4.49867">
        <ele>104</ele>
        <time>2021-07-04T13:12:13Z</time>
      </trkpt>
      <trkpt lat="44.20513" lon="4.49862">
        <ele>104</ele>
        <time>2021-07-04T13:12:13Z</time>
      </trkpt>
      <trkpt lat="44.20512" lon="4.49853">
        <ele>104</ele>
        <time>2021-07-04T13:12:15Z</time>
      </trkpt>
      <trkpt lat="44.20509" lon="4.49831">
        <ele>105</ele>
        <time>2021-07-04T13:12:19Z</time>
      </trkpt>
      <trkpt lat="44.20503" lon="4.49831">
        <ele>106</ele>
        <time>2021-07-04T13:12:20Z</time>
      </trkpt>
      <trkpt lat="44.2048" lon="4.49831">
        <ele>109</ele>
        <time>2021-07-04T13:12:26Z</time>
      </trkpt>
      <trkpt lat="44.20465" lon="4.49826">
        <ele>111</ele>
        <time>2021-07-04T13:12:29Z</time>
      </trkpt>
      <trkpt lat="44.20454" lon="4.49818">
        <ele>113</ele>
        <time>2021-07-04T13:12:32Z</time>
      </trkpt>
      <trkpt lat="44.20445" lon="4.49805">
        <ele>115</ele>
        <time>2021-07-04T13:12:35Z</time>
      </trkpt>
      <trkpt lat="44.20431" lon="4.49784">
        <ele>118</ele>
        <time>2021-07-04T13:12:40Z</time>
      </trkpt>
      <trkpt lat="44.20417" lon="4.4977">
        <ele>121</ele>
        <time>2021-07-04T13:12:44Z</time>
      </trkpt>
      <trkpt lat="44.20409" lon="4.49762">
        <ele>123</ele>
        <time>2021-07-04T13:12:46Z</time>
      </trkpt>
      <trkpt lat="44.20401" lon="4.49758">
        <ele>124</ele>
        <time>2021-07-04T13:12:48Z</time>
      </trkpt>
      <trkpt lat="44.2039" lon="4.49754">
        <ele>126</ele>
        <time>2021-07-04T13:12:51Z</time>
      </trkpt>
      <trkpt lat="44.2038" lon="4.49752">
        <ele>128</ele>
        <time>2021-07-04T13:12:53Z</time>
      </trkpt>
      <trkpt lat="44.2037" lon="4.49748">
        <ele>130</ele>
        <time>2021-07-04T13:12:56Z</time>
      </trkpt>
      <trkpt lat="44.20357" lon="4.49739">
        <ele>133</ele>
        <time>2021-07-04T13:12:59Z</time>
      </trkpt>
      <trkpt lat="44.20348" lon="4.49733">
        <ele>134</ele>
        <time>2021-07-04T13:13:01Z</time>
      </trkpt>
      <trkpt lat="44.20342" lon="4.49726">
        <ele>136</ele>
        <time>2021-07-04T13:13:03Z</time>
      </trkpt>
      <trkpt lat="44.20331" lon="4.49701">
        <ele>139</ele>
        <time>2021-07-04T13:13:08Z</time>
      </trkpt>
      <trkpt lat="44.2033" lon="4.49698">
        <ele>139</ele>
        <time>2021-07-04T13:13:09Z</time>
      </trkpt>
      <trkpt lat="44.20323" lon="4.49699">
        <ele>141</ele>
        <time>2021-07-04T13:13:10Z</time>
      </trkpt>
      <trkpt lat="44.20312" lon="4.49704">
        <ele>144</ele>
        <time>2021-07-04T13:13:13Z</time>
      </trkpt>
      <trkpt lat="44.20296" lon="4.49712">
        <ele>147</ele>
        <time>2021-07-04T13:13:17Z</time>
      </trkpt>
      <trkpt lat="44.20287" lon="4.49719">
        <ele>149</ele>
        <time>2021-07-04T13:13:19Z</time>
      </trkpt>
      <trkpt lat="44.20281" lon="4.49723">
        <ele>150</ele>
        <time>2021-07-04T13:13:21Z</time>
      </trkpt>
      <trkpt lat="44.20273" lon="4.49726">
        <ele>152</ele>
        <time>2021-07-04T13:13:23Z</time>
      </trkpt>
      <trkpt lat="44.20264" lon="4.49729">
        <ele>154</ele>
        <time>2021-07-04T13:13:25Z</time>
      </trkpt>
      <trkpt lat="44.20246" lon="4.49734">
        <ele>158</ele>
        <time>2021-07-04T13:13:29Z</time>
      </trkpt>
      <trkpt lat="44.20231" lon="4.49738">
        <ele>160</ele>
        <time>2021-07-04T13:13:33Z</time>
      </trkpt>
      <trkpt lat="44.20216" lon="4.49743">
        <ele>161</ele>
        <time>2021-07-04T13:13:36Z</time>
      </trkpt>
      <trkpt lat="44.20198" lon="4.49746">
        <ele>164</ele>
        <time>2021-07-04T13:13:41Z</time>
      </trkpt>
      <trkpt lat="44.20177" lon="4.49749">
        <ele>167</ele>
        <time>2021-07-04T13:13:46Z</time>
      </trkpt>
      <trkpt lat="44.20165" lon="4.49757">
        <ele>168</ele>
        <time>2021-07-04T13:13:49Z</time>
      </trkpt>
      <trkpt lat="44.20146" lon="4.49762">
        <ele>170</ele>
        <time>2021-07-04T13:13:53Z</time>
      </trkpt>
      <trkpt lat="44.20139" lon="4.49765">
        <ele>171</ele>
        <time>2021-07-04T13:13:55Z</time>
      </trkpt>
      <trkpt lat="44.20136" lon="4.49765">
        <ele>171</ele>
        <time>2021-07-04T13:13:56Z</time>
      </trkpt>
      <trkpt lat="44.20132" lon="4.49765">
        <ele>172</ele>
        <time>2021-07-04T13:13:57Z</time>
      </trkpt>
      <trkpt lat="44.20122" lon="4.49761">
        <ele>173</ele>
        <time>2021-07-04T13:13:59Z</time>
      </trkpt>
      <trkpt lat="44.20115" lon="4.49758">
        <ele>173</ele>
        <time>2021-07-04T13:14:01Z</time>
      </trkpt>
      <trkpt lat="44.20103" lon="4.49755">
        <ele>174</ele>
        <time>2021-07-04T13:14:04Z</time>
      </trkpt>
      <trkpt lat="44.20096" lon="4.49755">
        <ele>174</ele>
        <time>2021-07-04T13:14:05Z</time>
      </trkpt>
      <trkpt lat="44.20091" lon="4.49763">
        <ele>176</ele>
        <time>2021-07-04T13:14:07Z</time>
      </trkpt>
      <trkpt lat="44.2009" lon="4.49776">
        <ele>177</ele>
        <time>2021-07-04T13:14:09Z</time>
      </trkpt>
      <trkpt lat="44.20099" lon="4.49794">
        <ele>178</ele>
        <time>2021-07-04T13:14:13Z</time>
      </trkpt>
      <trkpt lat="44.20102" lon="4.49799">
        <ele>178</ele>
        <time>2021-07-04T13:14:14Z</time>
      </trkpt>
      <trkpt lat="44.2012" lon="4.49823">
        <ele>177</ele>
        <time>2021-07-04T13:14:20Z</time>
      </trkpt>
      <trkpt lat="44.20131" lon="4.49841">
        <ele>177</ele>
        <time>2021-07-04T13:14:24Z</time>
      </trkpt>
      <trkpt lat="44.20138" lon="4.49857">
        <ele>178</ele>
        <time>2021-07-04T13:14:27Z</time>
      </trkpt>
      <trkpt lat="44.20148" lon="4.49876">
        <ele>178</ele>
        <time>2021-07-04T13:14:31Z</time>
      </trkpt>
      <trkpt lat="44.20151" lon="4.49889">
        <ele>179</ele>
        <time>2021-07-04T13:14:33Z</time>
      </trkpt>
      <trkpt lat="44.20154" lon="4.499">
        <ele>180</ele>
        <time>2021-07-04T13:14:35Z</time>
      </trkpt>
      <trkpt lat="44.20155" lon="4.49908">
        <ele>181</ele>
        <time>2021-07-04T13:14:36Z</time>
      </trkpt>
      <trkpt lat="44.20155" lon="4.49925">
        <ele>183</ele>
        <time>2021-07-04T13:14:39Z</time>
      </trkpt>
      <trkpt lat="44.20154" lon="4.49935">
        <ele>184</ele>
        <time>2021-07-04T13:14:41Z</time>
      </trkpt>
      <trkpt lat="44.20159" lon="4.49953">
        <ele>185</ele>
        <time>2021-07-04T13:14:44Z</time>
      </trkpt>
      <trkpt lat="44.2016" lon="4.49962">
        <ele>186</ele>
        <time>2021-07-04T13:14:46Z</time>
      </trkpt>
      <trkpt lat="44.20159" lon="4.49969">
        <ele>186</ele>
        <time>2021-07-04T13:14:47Z</time>
      </trkpt>
      <trkpt lat="44.20159" lon="4.49977">
        <ele>187</ele>
        <time>2021-07-04T13:14:48Z</time>
      </trkpt>
      <trkpt lat="44.20155" lon="4.49987">
        <ele>188</ele>
        <time>2021-07-04T13:14:50Z</time>
      </trkpt>
      <trkpt lat="44.20156" lon="4.49994">
        <ele>189</ele>
        <time>2021-07-04T13:14:51Z</time>
      </trkpt>
      <trkpt lat="44.20157" lon="4.49998">
        <ele>189</ele>
        <time>2021-07-04T13:14:52Z</time>
      </trkpt>
      <trkpt lat="44.20161" lon="4.49998">
        <ele>189</ele>
        <time>2021-07-04T13:14:53Z</time>
      </trkpt>
      <trkpt lat="44.20166" lon="4.49998">
        <ele>189</ele>
        <time>2021-07-04T13:14:54Z</time>
      </trkpt>
      <trkpt lat="44.20177" lon="4.50007">
        <ele>186</ele>
        <time>2021-07-04T13:14:57Z</time>
      </trkpt>
      <trkpt lat="44.20181" lon="4.50021">
        <ele>184</ele>
        <time>2021-07-04T13:15:00Z</time>
      </trkpt>
      <trkpt lat="44.2018" lon="4.50037">
        <ele>185</ele>
        <time>2021-07-04T13:15:02Z</time>
      </trkpt>
      <trkpt lat="44.20179" lon="4.50049">
        <ele>185</ele>
        <time>2021-07-04T13:15:04Z</time>
      </trkpt>
      <trkpt lat="44.20176" lon="4.50066">
        <ele>186</ele>
        <time>2021-07-04T13:15:07Z</time>
      </trkpt>
      <trkpt lat="44.20172" lon="4.50085">
        <ele>187</ele>
        <time>2021-07-04T13:15:11Z</time>
      </trkpt>
      <trkpt lat="44.20172" lon="4.50095">
        <ele>187</ele>
        <time>2021-07-04T13:15:12Z</time>
      </trkpt>
      <trkpt lat="44.20182" lon="4.50127">
        <ele>184</ele>
        <time>2021-07-04T13:15:18Z</time>
      </trkpt>
      <trkpt lat="44.20203" lon="4.50218">
        <ele>176</ele>
        <time>2021-07-04T13:15:34Z</time>
      </trkpt>
      <trkpt lat="44.20182" lon="4.50127">
        <ele>184</ele>
        <time>2021-07-04T13:15:50Z</time>
      </trkpt>
      <trkpt lat="44.20233" lon="4.50339">
        <ele>169</ele>
        <time>2021-07-04T13:16:28Z</time>
      </trkpt>
      <trkpt lat="44.20228" lon="4.50384">
        <ele>167</ele>
        <time>2021-07-04T13:16:35Z</time>
      </trkpt>
      <trkpt lat="44.20202" lon="4.50412">
        <ele>168</ele>
        <time>2021-07-04T13:16:43Z</time>
      </trkpt>
      <trkpt lat="44.20159" lon="4.50422">
        <ele>168</ele>
        <time>2021-07-04T13:16:53Z</time>
      </trkpt>
      <trkpt lat="44.20125" lon="4.50421">
        <ele>168</ele>
        <time>2021-07-04T13:17:01Z</time>
      </trkpt>
      <trkpt lat="44.20063" lon="4.50425">
        <ele>167</ele>
        <time>2021-07-04T13:17:15Z</time>
      </trkpt>
      <trkpt lat="44.19995" lon="4.50419">
        <ele>165</ele>
        <time>2021-07-04T13:17:31Z</time>
      </trkpt>
      <trkpt lat="44.19934" lon="4.5041">
        <ele>155</ele>
        <time>2021-07-04T13:17:46Z</time>
      </trkpt>
      <trkpt lat="44.19922" lon="4.50408">
        <ele>153</ele>
        <time>2021-07-04T13:17:49Z</time>
      </trkpt>
      <trkpt lat="44.19947" lon="4.50355">
        <ele>157</ele>
        <time>2021-07-04T13:17:59Z</time>
      </trkpt>
      <trkpt lat="44.19958" lon="4.50295">
        <ele>165</ele>
        <time>2021-07-04T13:18:10Z</time>
      </trkpt>
      <trkpt lat="44.19931" lon="4.503">
        <ele>159</ele>
        <time>2021-07-04T13:18:16Z</time>
      </trkpt>
      <trkpt lat="44.19906" lon="4.50284">
        <ele>158</ele>
        <time>2021-07-04T13:18:22Z</time>
      </trkpt>
      <trkpt lat="44.1989" lon="4.50245">
        <ele>162</ele>
        <time>2021-07-04T13:18:30Z</time>
      </trkpt>
      <trkpt lat="44.19866" lon="4.50244">
        <ele>157</ele>
        <time>2021-07-04T13:18:35Z</time>
      </trkpt>
      <trkpt lat="44.19844" lon="4.50241">
        <ele>153</ele>
        <time>2021-07-04T13:18:41Z</time>
      </trkpt>
      <trkpt lat="44.19824" lon="4.50219">
        <ele>149</ele>
        <time>2021-07-04T13:18:47Z</time>
      </trkpt>
      <trkpt lat="44.19835" lon="4.50181">
        <ele>152</ele>
        <time>2021-07-04T13:18:53Z</time>
      </trkpt>
      <trkpt lat="44.19862" lon="4.5012">
        <ele>163</ele>
        <time>2021-07-04T13:19:05Z</time>
      </trkpt>
      <trkpt lat="44.19826" lon="4.50037">
        <ele>161</ele>
        <time>2021-07-04T13:19:22Z</time>
      </trkpt>
      <trkpt lat="44.19799" lon="4.49983">
        <ele>158</ele>
        <time>2021-07-04T13:19:33Z</time>
      </trkpt>
      <trkpt lat="44.19823" lon="4.49943">
        <ele>156</ele>
        <time>2021-07-04T13:19:41Z</time>
      </trkpt>
      <trkpt lat="44.19871" lon="4.49875">
        <ele>158</ele>
        <time>2021-07-04T13:19:57Z</time>
      </trkpt>
      <trkpt lat="44.19904" lon="4.49845">
        <ele>161</ele>
        <time>2021-07-04T13:20:07Z</time>
      </trkpt>
      <trkpt lat="44.19937" lon="4.49836">
        <ele>165</ele>
        <time>2021-07-04T13:20:14Z</time>
      </trkpt>
      <trkpt lat="44.2" lon="4.49827">
        <ele>174</ele>
        <time>2021-07-04T13:20:29Z</time>
      </trkpt>
      <trkpt lat="44.20017" lon="4.49824">
        <ele>175</ele>
        <time>2021-07-04T13:20:33Z</time>
      </trkpt>
      <trkpt lat="44.20033" lon="4.49794">
        <ele>175</ele>
        <time>2021-07-04T13:20:39Z</time>
      </trkpt>
      <trkpt lat="44.20048" lon="4.49757">
        <ele>173</ele>
        <time>2021-07-04T13:20:47Z</time>
      </trkpt>
      <trkpt lat="44.20072" lon="4.49748">
        <ele>174</ele>
        <time>2021-07-04T13:20:52Z</time>
      </trkpt>
      <trkpt lat="44.20066" lon="4.49702">
        <ele>176</ele>
        <time>2021-07-04T13:21:00Z</time>
      </trkpt>
      <trkpt lat="44.20061" lon="4.49645">
        <ele>178</ele>
        <time>2021-07-04T13:21:10Z</time>
      </trkpt>
      <trkpt lat="44.20065" lon="4.49606">
        <ele>181</ele>
        <time>2021-07-04T13:21:16Z</time>
      </trkpt>
      <trkpt lat="44.20026" lon="4.4959">
        <ele>181</ele>
        <time>2021-07-04T13:21:26Z</time>
      </trkpt>
      <trkpt lat="44.19986" lon="4.49567">
        <ele>179</ele>
        <time>2021-07-04T13:21:36Z</time>
      </trkpt>
      <trkpt lat="44.19937" lon="4.49505">
        <ele>169</ele>
        <time>2021-07-04T13:21:51Z</time>
      </trkpt>
      <trkpt lat="44.19904" lon="4.49523">
        <ele>163</ele>
        <time>2021-07-04T13:22:00Z</time>
      </trkpt>
      <trkpt lat="44.19939" lon="4.49638">
        <ele>170</ele>
        <time>2021-07-04T13:22:21Z</time>
      </trkpt>
      <trkpt lat="44.19954" lon="4.49666">
        <ele>170</ele>
        <time>2021-07-04T13:22:27Z</time>
      </trkpt>
      <trkpt lat="44.19939" lon="4.49706">
        <ele>164</ele>
        <time>2021-07-04T13:22:34Z</time>
      </trkpt>
      <trkpt lat="44.19947" lon="4.49788">
        <ele>163</ele>
        <time>2021-07-04T13:22:48Z</time>
      </trkpt>
      <trkpt lat="44.19888" lon="4.49808">
        <ele>155</ele>
        <time>2021-07-04T13:23:02Z</time>
      </trkpt>
      <trkpt lat="44.19831" lon="4.49827">
        <ele>145</ele>
        <time>2021-07-04T13:23:16Z</time>
      </trkpt>
      <trkpt lat="44.19766" lon="4.49874">
        <ele>141</ele>
        <time>2021-07-04T13:23:33Z</time>
      </trkpt>
      <trkpt lat="44.19715" lon="4.49897">
        <ele>135</ele>
        <time>2021-07-04T13:23:45Z</time>
      </trkpt>
      <trkpt lat="44.19694" lon="4.49897">
        <ele>132</ele>
        <time>2021-07-04T13:23:50Z</time>
      </trkpt>
      <trkpt lat="44.19673" lon="4.49878">
        <ele>129</ele>
        <time>2021-07-04T13:23:56Z</time>
      </trkpt>
      <trkpt lat="44.19628" lon="4.4989">
        <ele>120</ele>
        <time>2021-07-04T13:24:07Z</time>
      </trkpt>
      <trkpt lat="44.1957" lon="4.49901">
        <ele>109</ele>
        <time>2021-07-04T13:24:21Z</time>
      </trkpt>
      <trkpt lat="44.19545" lon="4.4997">
        <ele>103</ele>
        <time>2021-07-04T13:24:33Z</time>
      </trkpt>
      <trkpt lat="44.19555" lon="4.50065">
        <ele>100</ele>
        <time>2021-07-04T13:24:50Z</time>
      </trkpt>
      <trkpt lat="44.19559" lon="4.50137">
        <ele>96</ele>
        <time>2021-07-04T13:25:02Z</time>
      </trkpt>
      <trkpt lat="44.19595" lon="4.50238">
        <ele>95</ele>
        <time>2021-07-04T13:25:21Z</time>
      </trkpt>
      <trkpt lat="44.19549" lon="4.50272">
        <ele>86</ele>
        <time>2021-07-04T13:25:33Z</time>
      </trkpt>
      <trkpt lat="44.1952" lon="4.5027">
        <ele>83</ele>
        <time>2021-07-04T13:25:39Z</time>
      </trkpt>
      <trkpt lat="44.19498" lon="4.50282">
        <ele>80</ele>
        <time>2021-07-04T13:25:45Z</time>
      </trkpt>
      <trkpt lat="44.19488" lon="4.50312">
        <ele>78</ele>
        <time>2021-07-04T13:25:51Z</time>
      </trkpt>
      <trkpt lat="44.19479" lon="4.50353">
        <ele>77</ele>
        <time>2021-07-04T13:25:58Z</time>
      </trkpt>
      <trkpt lat="44.19352" lon="4.50287">
        <ele>77</ele>
        <time>2021-07-04T13:26:29Z</time>
      </trkpt>
      <trkpt lat="44.19318" lon="4.5025">
        <ele>77</ele>
        <time>2021-07-04T13:26:39Z</time>
      </trkpt>
      <trkpt lat="44.19267" lon="4.5019">
        <ele>77</ele>
        <time>2021-07-04T13:26:55Z</time>
      </trkpt>
      <trkpt lat="44.19214" lon="4.50154">
        <ele>79</ele>
        <time>2021-07-04T13:27:09Z</time>
      </trkpt>
      <trkpt lat="44.19134" lon="4.50051">
        <ele>83</ele>
        <time>2021-07-04T13:27:34Z</time>
      </trkpt>
      <trkpt lat="44.19135" lon="4.5005">
        <ele>83</ele>
        <time>2021-07-04T13:27:34Z</time>
      </trkpt>
      <trkpt lat="44.19132" lon="4.50045">
        <ele>83</ele>
        <time>2021-07-04T13:27:36Z</time>
      </trkpt>
      <trkpt lat="44.19133" lon="4.50031">
        <ele>83</ele>
        <time>2021-07-04T13:27:38Z</time>
      </trkpt>
      <trkpt lat="44.19146" lon="4.5001">
        <ele>84</ele>
        <time>2021-07-04T13:27:43Z</time>
      </trkpt>
      <trkpt lat="44.19153" lon="4.49993">
        <ele>85</ele>
        <time>2021-07-04T13:27:46Z</time>
      </trkpt>
      <trkpt lat="44.19159" lon="4.49972">
        <ele>87</ele>
        <time>2021-07-04T13:27:50Z</time>
      </trkpt>
      <trkpt lat="44.19168" lon="4.49958">
        <ele>89</ele>
        <time>2021-07-04T13:27:53Z</time>
      </trkpt>
      <trkpt lat="44.19187" lon="4.49952">
        <ele>90</ele>
        <time>2021-07-04T13:27:57Z</time>
      </trkpt>
      <trkpt lat="44.19213" lon="4.49948">
        <ele>92</ele>
        <time>2021-07-04T13:28:03Z</time>
      </trkpt>
      <trkpt lat="44.19219" lon="4.49938">
        <ele>93</ele>
        <time>2021-07-04T13:28:06Z</time>
      </trkpt>
      <trkpt lat="44.1922" lon="4.49899">
        <ele>97</ele>
        <time>2021-07-04T13:28:12Z</time>
      </trkpt>
      <trkpt lat="44.19219" lon="4.49871">
        <ele>99</ele>
        <time>2021-07-04T13:28:17Z</time>
      </trkpt>
      <trkpt lat="44.1927" lon="4.49782">
        <ele>103</ele>
        <time>2021-07-04T13:28:36Z</time>
      </trkpt>
      <trkpt lat="44.19274" lon="4.49774">
        <ele>103</ele>
        <time>2021-07-04T13:28:38Z</time>
      </trkpt>
      <trkpt lat="44.19308" lon="4.49772">
        <ele>102</ele>
        <time>2021-07-04T13:28:46Z</time>
      </trkpt>
      <trkpt lat="44.19324" lon="4.49765">
        <ele>102</ele>
        <time>2021-07-04T13:28:49Z</time>
      </trkpt>
      <trkpt lat="44.19333" lon="4.49752">
        <ele>102</ele>
        <time>2021-07-04T13:28:52Z</time>
      </trkpt>
      <trkpt lat="44.19337" lon="4.49739">
        <ele>102</ele>
        <time>2021-07-04T13:28:55Z</time>
      </trkpt>
      <trkpt lat="44.19339" lon="4.49716">
        <ele>102</ele>
        <time>2021-07-04T13:28:59Z</time>
      </trkpt>
      <trkpt lat="44.19345" lon="4.49711">
        <ele>102</ele>
        <time>2021-07-04T13:29:00Z</time>
      </trkpt>
      <trkpt lat="44.19351" lon="4.49711">
        <ele>102</ele>
        <time>2021-07-04T13:29:02Z</time>
      </trkpt>
      <trkpt lat="44.19353" lon="4.49711">
        <ele>102</ele>
        <time>2021-07-04T13:29:02Z</time>
      </trkpt>
      <trkpt lat="44.19372" lon="4.49718">
        <ele>102</ele>
        <time>2021-07-04T13:29:07Z</time>
      </trkpt>
      <trkpt lat="44.19391" lon="4.49725">
        <ele>103</ele>
        <time>2021-07-04T13:29:11Z</time>
      </trkpt>
      <trkpt lat="44.1941" lon="4.49722">
        <ele>103</ele>
        <time>2021-07-04T13:29:16Z</time>
      </trkpt>
      <trkpt lat="44.1941" lon="4.49722">
        <ele>103</ele>
        <time>2021-07-04T13:29:16Z</time>
      </trkpt>
      <trkpt lat="44.19422" lon="4.49718">
        <ele>103</ele>
        <time>2021-07-04T13:29:19Z</time>
      </trkpt>
      <trkpt lat="44.1945" lon="4.49713">
        <ele>104</ele>
        <time>2021-07-04T13:29:25Z</time>
      </trkpt>
      <trkpt lat="44.19451" lon="4.49713">
        <ele>104</ele>
        <time>2021-07-04T13:29:26Z</time>
      </trkpt>
      <trkpt lat="44.19476" lon="4.49706">
        <ele>104</ele>
        <time>2021-07-04T13:29:32Z</time>
      </trkpt>
      <trkpt lat="44.19477" lon="4.49706">
        <ele>104</ele>
        <time>2021-07-04T13:29:32Z</time>
      </trkpt>
      <trkpt lat="44.19502" lon="4.49685">
        <ele>104</ele>
        <time>2021-07-04T13:29:39Z</time>
      </trkpt>
      <trkpt lat="44.19514" lon="4.49666">
        <ele>105</ele>
        <time>2021-07-04T13:29:43Z</time>
      </trkpt>
      <trkpt lat="44.19499" lon="4.49619">
        <ele>98</ele>
        <time>2021-07-04T13:29:51Z</time>
      </trkpt>
      <trkpt lat="44.19469" lon="4.49512">
        <ele>89</ele>
        <time>2021-07-04T13:30:11Z</time>
      </trkpt>
      <trkpt lat="44.19456" lon="4.49393">
        <ele>78</ele>
        <time>2021-07-04T13:30:31Z</time>
      </trkpt>
      <trkpt lat="44.19521" lon="4.49344">
        <ele>80</ele>
        <time>2021-07-04T13:30:48Z</time>
      </trkpt>
      <trkpt lat="44.1955" lon="4.49324">
        <ele>81</ele>
        <time>2021-07-04T13:30:56Z</time>
      </trkpt>
      <trkpt lat="44.19588" lon="4.49282">
        <ele>77</ele>
        <time>2021-07-04T13:31:07Z</time>
      </trkpt>
      <trkpt lat="44.19658" lon="4.49254">
        <ele>74</ele>
        <time>2021-07-04T13:31:24Z</time>
      </trkpt>
      <trkpt lat="44.19694" lon="4.49195">
        <ele>73</ele>
        <time>2021-07-04T13:31:37Z</time>
      </trkpt>
      <trkpt lat="44.19707" lon="4.49094">
        <ele>71</ele>
        <time>2021-07-04T13:31:54Z</time>
      </trkpt>
      <trkpt lat="44.19733" lon="4.49046">
        <ele>71</ele>
        <time>2021-07-04T13:32:04Z</time>
      </trkpt>
      <trkpt lat="44.1975" lon="4.48911">
        <ele>73</ele>
        <time>2021-07-04T13:32:27Z</time>
      </trkpt>
      <trkpt lat="44.19755" lon="4.48849">
        <ele>72</ele>
        <time>2021-07-04T13:32:38Z</time>
      </trkpt>
      <trkpt lat="44.1976" lon="4.48836">
        <ele>72</ele>
        <time>2021-07-04T13:32:40Z</time>
      </trkpt>
      <trkpt lat="44.19766" lon="4.48828">
        <ele>72</ele>
        <time>2021-07-04T13:32:42Z</time>
      </trkpt>
      <trkpt lat="44.19775" lon="4.48819">
        <ele>73</ele>
        <time>2021-07-04T13:32:45Z</time>
      </trkpt>
      <trkpt lat="44.19789" lon="4.48811">
        <ele>73</ele>
        <time>2021-07-04T13:32:48Z</time>
      </trkpt>
      <trkpt lat="44.19794" lon="4.48806">
        <ele>73</ele>
        <time>2021-07-04T13:32:50Z</time>
      </trkpt>
      <trkpt lat="44.19796" lon="4.48798">
        <ele>73</ele>
        <time>2021-07-04T13:32:51Z</time>
      </trkpt>
      <trkpt lat="44.19797" lon="4.48795">
        <ele>73</ele>
        <time>2021-07-04T13:32:52Z</time>
      </trkpt>
      <trkpt lat="44.19806" lon="4.4868">
        <ele>74</ele>
        <time>2021-07-04T13:33:11Z</time>
      </trkpt>
      <trkpt lat="44.19809" lon="4.48669">
        <ele>75</ele>
        <time>2021-07-04T13:33:13Z</time>
      </trkpt>
      <trkpt lat="44.19804" lon="4.48667">
        <ele>75</ele>
        <time>2021-07-04T13:33:14Z</time>
      </trkpt>
      <trkpt lat="44.19961" lon="4.48671">
        <ele>82</ele>
        <time>2021-07-04T13:33:51Z</time>
      </trkpt>
      <trkpt lat="44.1996" lon="4.48672">
        <ele>82</ele>
        <time>2021-07-04T13:33:51Z</time>
      </trkpt>
      <trkpt lat="44.19959" lon="4.48671">
        <ele>82</ele>
        <time>2021-07-04T13:33:51Z</time>
      </trkpt>
      <trkpt lat="44.19942" lon="4.48631">
        <ele>82</ele>
        <time>2021-07-04T13:33:59Z</time>
      </trkpt>
      <trkpt lat="44.19926" lon="4.48591">
        <ele>82</ele>
        <time>2021-07-04T13:34:07Z</time>
      </trkpt>
      <trkpt lat="44.1991" lon="4.48546">
        <ele>83</ele>
        <time>2021-07-04T13:34:15Z</time>
      </trkpt>
      <trkpt lat="44.19893" lon="4.48499">
        <ele>83</ele>
        <time>2021-07-04T13:34:24Z</time>
      </trkpt>
      <trkpt lat="44.19887" lon="4.48489">
        <ele>83</ele>
        <time>2021-07-04T13:34:26Z</time>
      </trkpt>
      <trkpt lat="44.19887" lon="4.48488">
        <ele>83</ele>
        <time>2021-07-04T13:34:26Z</time>
      </trkpt>
      <trkpt lat="44.19869" lon="4.48481">
        <ele>81</ele>
        <time>2021-07-04T13:34:31Z</time>
      </trkpt>
      <trkpt lat="44.19858" lon="4.4847">
        <ele>80</ele>
        <time>2021-07-04T13:34:34Z</time>
      </trkpt>
      <trkpt lat="44.19847" lon="4.48449">
        <ele>80</ele>
        <time>2021-07-04T13:34:38Z</time>
      </trkpt>
      <trkpt lat="44.19841" lon="4.48438">
        <ele>79</ele>
        <time>2021-07-04T13:34:41Z</time>
      </trkpt>
      <trkpt lat="44.19823" lon="4.48382">
        <ele>81</ele>
        <time>2021-07-04T13:34:51Z</time>
      </trkpt>
      <trkpt lat="44.19806" lon="4.48339">
        <ele>81</ele>
        <time>2021-07-04T13:34:59Z</time>
      </trkpt>
      <trkpt lat="44.19801" lon="4.4828">
        <ele>83</ele>
        <time>2021-07-04T13:35:09Z</time>
      </trkpt>
      <trkpt lat="44.19787" lon="4.48222">
        <ele>82</ele>
        <time>2021-07-04T13:35:19Z</time>
      </trkpt>
      <trkpt lat="44.19775" lon="4.48165">
        <ele>79</ele>
        <time>2021-07-04T13:35:29Z</time>
      </trkpt>
      <trkpt lat="44.19779" lon="4.48096">
        <ele>81</ele>
        <time>2021-07-04T13:35:41Z</time>
      </trkpt>
      <trkpt lat="44.19778" lon="4.48083">
        <ele>81</ele>
        <time>2021-07-04T13:35:43Z</time>
      </trkpt>
      <trkpt lat="44.19811" lon="4.48076">
        <ele>86</ele>
        <time>2021-07-04T13:35:51Z</time>
      </trkpt>
      <trkpt lat="44.19908" lon="4.48062">
        <ele>94</ele>
        <time>2021-07-04T13:36:14Z</time>
      </trkpt>
      <trkpt lat="44.19927" lon="4.48078">
        <ele>97</ele>
        <time>2021-07-04T13:36:19Z</time>
      </trkpt>
      <trkpt lat="44.19938" lon="4.48196">
        <ele>102</ele>
        <time>2021-07-04T13:36:39Z</time>
      </trkpt>
      <trkpt lat="44.1997" lon="4.48213">
        <ele>107</ele>
        <time>2021-07-04T13:36:47Z</time>
      </trkpt>
      <trkpt lat="44.19997" lon="4.48178">
        <ele>108</ele>
        <time>2021-07-04T13:36:55Z</time>
      </trkpt>
      <trkpt lat="44.20031" lon="4.48118">
        <ele>109</ele>
        <time>2021-07-04T13:37:08Z</time>
      </trkpt>
      <trkpt lat="44.20059" lon="4.48032">
        <ele>104</ele>
        <time>2021-07-04T13:37:24Z</time>
      </trkpt>
      <trkpt lat="44.20069" lon="4.47983">
        <ele>101</ele>
        <time>2021-07-04T13:37:32Z</time>
      </trkpt>
      <trkpt lat="44.20068" lon="4.47906">
        <ele>99</ele>
        <time>2021-07-04T13:37:45Z</time>
      </trkpt>
      <trkpt lat="44.20068" lon="4.47906">
        <ele>99</ele>
        <time>2021-07-04T13:37:45Z</time>
      </trkpt>
      <trkpt lat="44.20104" lon="4.47894">
        <ele>100</ele>
        <time>2021-07-04T13:37:54Z</time>
      </trkpt>
      <trkpt lat="44.2014" lon="4.47895">
        <ele>99</ele>
        <time>2021-07-04T13:38:02Z</time>
      </trkpt>
      <trkpt lat="44.20143" lon="4.47895">
        <ele>99</ele>
        <time>2021-07-04T13:38:03Z</time>
      </trkpt>
      <trkpt lat="44.20177" lon="4.47895">
        <ele>99</ele>
        <time>2021-07-04T13:38:11Z</time>
      </trkpt>
      <trkpt lat="44.20213" lon="4.47896">
        <ele>99</ele>
        <time>2021-07-04T13:38:19Z</time>
      </trkpt>
      <trkpt lat="44.20224" lon="4.47895">
        <ele>99</ele>
        <time>2021-07-04T13:38:22Z</time>
      </trkpt>
      <trkpt lat="44.20229" lon="4.47895">
        <ele>99</ele>
        <time>2021-07-04T13:38:23Z</time>
      </trkpt>
      <trkpt lat="44.2026" lon="4.47911">
        <ele>100</ele>
        <time>2021-07-04T13:38:31Z</time>
      </trkpt>
      <trkpt lat="44.2026" lon="4.47912">
        <ele>100</ele>
        <time>2021-07-04T13:38:31Z</time>
      </trkpt>
      <trkpt lat="44.2029" lon="4.47906">
        <ele>99</ele>
        <time>2021-07-04T13:38:38Z</time>
      </trkpt>
      <trkpt lat="44.20313" lon="4.47902">
        <ele>99</ele>
        <time>2021-07-04T13:38:43Z</time>
      </trkpt>
      <trkpt lat="44.20343" lon="4.4789">
        <ele>99</ele>
        <time>2021-07-04T13:38:51Z</time>
      </trkpt>
      <trkpt lat="44.20346" lon="4.4789">
        <ele>99</ele>
        <time>2021-07-04T13:38:51Z</time>
      </trkpt>
      <trkpt lat="44.20372" lon="4.4788">
        <ele>99</ele>
        <time>2021-07-04T13:38:58Z</time>
      </trkpt>
      <trkpt lat="44.20382" lon="4.47848">
        <ele>99</ele>
        <time>2021-07-04T13:39:04Z</time>
      </trkpt>
      <trkpt lat="44.20417" lon="4.47847">
        <ele>99</ele>
        <time>2021-07-04T13:39:12Z</time>
      </trkpt>
      <trkpt lat="44.20443" lon="4.47849">
        <ele>100</ele>
        <time>2021-07-04T13:39:18Z</time>
      </trkpt>
      <trkpt lat="44.20445" lon="4.47851">
        <ele>100</ele>
        <time>2021-07-04T13:39:18Z</time>
      </trkpt>
      <trkpt lat="44.20473" lon="4.47852">
        <ele>100</ele>
        <time>2021-07-04T13:39:25Z</time>
      </trkpt>
      <trkpt lat="44.20474" lon="4.47855">
        <ele>100</ele>
        <time>2021-07-04T13:39:26Z</time>
      </trkpt>
      <trkpt lat="44.20513" lon="4.47856">
        <ele>101</ele>
        <time>2021-07-04T13:39:35Z</time>
      </trkpt>
      <trkpt lat="44.20545" lon="4.47856">
        <ele>100</ele>
        <time>2021-07-04T13:39:42Z</time>
      </trkpt>
      <trkpt lat="44.2055" lon="4.47856">
        <ele>100</ele>
        <time>2021-07-04T13:39:43Z</time>
      </trkpt>
      <trkpt lat="44.20576" lon="4.47859">
        <ele>99</ele>
        <time>2021-07-04T13:39:49Z</time>
      </trkpt>
      <trkpt lat="44.20602" lon="4.47865">
        <ele>100</ele>
        <time>2021-07-04T13:39:56Z</time>
      </trkpt>
      <trkpt lat="44.20637" lon="4.47874">
        <ele>100</ele>
        <time>2021-07-04T13:40:04Z</time>
      </trkpt>
      <trkpt lat="44.20657" lon="4.47882">
        <ele>100</ele>
        <time>2021-07-04T13:40:09Z</time>
      </trkpt>
      <trkpt lat="44.20662" lon="4.47884">
        <ele>100</ele>
        <time>2021-07-04T13:40:10Z</time>
      </trkpt>
      <trkpt lat="44.20679" lon="4.47895">
        <ele>99</ele>
        <time>2021-07-04T13:40:14Z</time>
      </trkpt>
      <trkpt lat="44.20699" lon="4.47906">
        <ele>99</ele>
        <time>2021-07-04T13:40:19Z</time>
      </trkpt>
      <trkpt lat="44.20729" lon="4.47919">
        <ele>98</ele>
        <time>2021-07-04T13:40:27Z</time>
      </trkpt>
      <trkpt lat="44.20747" lon="4.47925">
        <ele>97</ele>
        <time>2021-07-04T13:40:31Z</time>
      </trkpt>
      <trkpt lat="44.20761" lon="4.47933">
        <ele>96</ele>
        <time>2021-07-04T13:40:35Z</time>
      </trkpt>
      <trkpt lat="44.20764" lon="4.47934">
        <ele>96</ele>
        <time>2021-07-04T13:40:35Z</time>
      </trkpt>
      <trkpt lat="44.20772" lon="4.47942">
        <ele>95</ele>
        <time>2021-07-04T13:40:38Z</time>
      </trkpt>
      <trkpt lat="44.20789" lon="4.47953">
        <ele>94</ele>
        <time>2021-07-04T13:40:42Z</time>
      </trkpt>
      <trkpt lat="44.20805" lon="4.4796">
        <ele>93</ele>
        <time>2021-07-04T13:40:46Z</time>
      </trkpt>
      <trkpt lat="44.20823" lon="4.47967">
        <ele>92</ele>
        <time>2021-07-04T13:40:50Z</time>
      </trkpt>
      <trkpt lat="44.2084" lon="4.47977">
        <ele>91</ele>
        <time>2021-07-04T13:40:54Z</time>
      </trkpt>
      <trkpt lat="44.20857" lon="4.47985">
        <ele>90</ele>
        <time>2021-07-04T13:40:59Z</time>
      </trkpt>
      <trkpt lat="44.20879" lon="4.47992">
        <ele>89</ele>
        <time>2021-07-04T13:41:04Z</time>
      </trkpt>
      <trkpt lat="44.20904" lon="4.48001">
        <ele>88</ele>
        <time>2021-07-04T13:41:10Z</time>
      </trkpt>
      <trkpt lat="44.2093" lon="4.48017">
        <ele>88</ele>
        <time>2021-07-04T13:41:17Z</time>
      </trkpt>
      <trkpt lat="44.20968" lon="4.48032">
        <ele>87</ele>
        <time>2021-07-04T13:41:26Z</time>
      </trkpt>
      <trkpt lat="44.21007" lon="4.48048">
        <ele>86</ele>
        <time>2021-07-04T13:41:35Z</time>
      </trkpt>
      <trkpt lat="44.21047" lon="4.48063">
        <ele>85</ele>
        <time>2021-07-04T13:41:45Z</time>
      </trkpt>
      <trkpt lat="44.21082" lon="4.48081">
        <ele>84</ele>
        <time>2021-07-04T13:41:54Z</time>
      </trkpt>
      <trkpt lat="44.21112" lon="4.48096">
        <ele>84</ele>
        <time>2021-07-04T13:42:01Z</time>
      </trkpt>
      <trkpt lat="44.21125" lon="4.48104">
        <ele>85</ele>
        <time>2021-07-04T13:42:04Z</time>
      </trkpt>
      <trkpt lat="44.2115" lon="4.48122">
        <ele>84</ele>
        <time>2021-07-04T13:42:11Z</time>
      </trkpt>
      <trkpt lat="44.21166" lon="4.48132">
        <ele>84</ele>
        <time>2021-07-04T13:42:15Z</time>
      </trkpt>
      <trkpt lat="44.21185" lon="4.48141">
        <ele>83</ele>
        <time>2021-07-04T13:42:20Z</time>
      </trkpt>
      <trkpt lat="44.21208" lon="4.48149">
        <ele>82</ele>
        <time>2021-07-04T13:42:25Z</time>
      </trkpt>
      <trkpt lat="44.21211" lon="4.48149">
        <ele>82</ele>
        <time>2021-07-04T13:42:26Z</time>
      </trkpt>
      <trkpt lat="44.21251" lon="4.48161">
        <ele>80</ele>
        <time>2021-07-04T13:42:36Z</time>
      </trkpt>
      <trkpt lat="44.2144" lon="4.48231">
        <ele>76</ele>
        <time>2021-07-04T13:43:21Z</time>
      </trkpt>
      <trkpt lat="44.21477" lon="4.4825">
        <ele>77</ele>
        <time>2021-07-04T13:43:30Z</time>
      </trkpt>
      <trkpt lat="44.21506" lon="4.4827">
        <ele>77</ele>
        <time>2021-07-04T13:43:38Z</time>
      </trkpt>
      <trkpt lat="44.21546" lon="4.48296">
        <ele>76</ele>
        <time>2021-07-04T13:43:48Z</time>
      </trkpt>
      <trkpt lat="44.21583" lon="4.48329">
        <ele>76</ele>
        <time>2021-07-04T13:43:59Z</time>
      </trkpt>
      <trkpt lat="44.21604" lon="4.4835">
        <ele>77</ele>
        <time>2021-07-04T13:44:05Z</time>
      </trkpt>
      <trkpt lat="44.21763" lon="4.48511">
        <ele>87</ele>
        <time>2021-07-04T13:44:51Z</time>
      </trkpt>
      <trkpt lat="44.21798" lon="4.48545">
        <ele>87</ele>
        <time>2021-07-04T13:45:00Z</time>
      </trkpt>
      <trkpt lat="44.21825" lon="4.48524">
        <ele>85</ele>
        <time>2021-07-04T13:45:08Z</time>
      </trkpt>
      <trkpt lat="44.2183" lon="4.4852">
        <ele>85</ele>
        <time>2021-07-04T13:45:09Z</time>
      </trkpt>
      <trkpt lat="44.21844" lon="4.48547">
        <ele>86</ele>
        <time>2021-07-04T13:45:15Z</time>
      </trkpt>
      <trkpt lat="44.21851" lon="4.48557">
        <ele>86</ele>
        <time>2021-07-04T13:45:17Z</time>
      </trkpt>
      <trkpt lat="44.21826" lon="4.48581">
        <ele>89</ele>
        <time>2021-07-04T13:45:24Z</time>
      </trkpt>
      <trkpt lat="44.21819" lon="4.48567">
        <ele>88</ele>
        <time>2021-07-04T13:45:27Z</time>
      </trkpt>
    </trkseg>
  </trk>
</gpx>